Terminal Aerodrome Forecast
Issued by NWS

Home | Current Version | Previous Version | Text Only | Print | Product List | Glossary On
Versions: 1 2 3 4 5 6 7 8 9 10 11 12 13 14 15 16 17 18 19 20 21 22 23 24 25 26
000
FTUS41 KOKX 300220 AAB
TAFSWF
TAF AMD
KSWF 300220Z 3002/0106 VRB04KT P6SM -SHRA SCT025 OVC040
      TEMPO 3002/3004 5SM -SHRA BR BKN025
     FM300400 VRB03KT P6SM SCT025 BKN050
     FM301300 08004KT P6SM SCT050
     FM301600 15005KT P6SM SCT050
     FM302100 18005KT P6SM SCT050
     FM010000 VRB05KT P6SM BKN120
      AMD NOT SKED=

USA.gov is the U.S. government's official web portal to all federal, state and local government web resources and services.